Aérodrome :
LOGIN :

S'inscrire | Disclaimer

   EN    FR    IT 

 










Légende :    VFR   VFR Marginal   IFR   IFR Intensif   IFR Très Intensif
Visi : 
Plafond : 
>= 8 km
>= 3000ft
5 à 8 km
1000 à 3000 ft
1500m à 5 km
500 à 1000 ft
800 à 1500m
200 à 500 ft
< 800m
< 200 ft
Symboles :   Orages  Brouillard  Fortes neiges  Fortes précipitations  Vent > 20 kt
SIGMETs :   Divers  Orages  Givrage  Turbulence  Onde Orograph.  Cendres Volcan.






- Altitude de l'aérodrome : 289 ft
- Code IATA : ZAD


LDZD - Zadar

DERNIER METAR :
  • 051900Z 08004KT 010V120 9999 BKN045 09/03 Q1026 NOSIG

METARs EXPIRÉS :
  • 051830Z 07004KT 040V110 9999 BKN043 09/03 Q1026 NOSIG
  • 051800Z 05005KT 020V080 9999 BKN042 09/03 Q1026 NOSIG
  • 051730Z 07003KT 020V120 9999 BKN042 09/03 Q1026 NOSIG
  • 051700Z 05004KT 020V080 9999 BKN042 09/03 Q1026 NOSIG
  • 051630Z 06005KT 020V080 9999 BKN042 10/03 Q1026 NOSIG
  • 051600Z 07005KT 9999 FEW050 09/03 Q1026 NOSIG

TAF TAF LDZD
Valide du 05 à 18h jusqu'au 06 à 18h UTC


051725Z 0518/0618 09005KT 9999 SCT040 TX13/0613Z TN02/0600Z
PROB30
TEMPO 0612/0618 12008KT



MET'MAP, la Météo Aéronautique d'un coup d'oeil ! - Copyright ORBIFLY Décembre 2007 - Disclaimer

ORBIFLY MET'MAP TEAM :

Programmation & Développement : Alexandra Zaïnal
Sur une idée originale de : Baudouin d'Aumeries
Assistance à la programmation : Marc-Olivier Méhu
Soutien technique & logistique : Manuel Goepfert

Contact : metmap@orbifly.com




SOURCES & CREDITS :

   NOAA